sensor_id;sensor_type;location;lat;lon;timestamp;temperature;humidity
18712;DHT22;9485;49.386;8.674;2022-09-20T00:02:27;13.80;94.90
18712;DHT22;9485;49.386;8.674;2022-09-20T00:07:47;13.80;94.90
18712;DHT22;9485;49.386;8.674;2022-09-20T00:13:09;13.80;94.90
18712;DHT22;9485;49.386;8.674;2022-09-20T00:18:33;13.80;94.90
18712;DHT22;9485;49.386;8.674;2022-09-20T00:23:54;13.90;94.90
18712;DHT22;9485;49.386;8.674;2022-09-20T00:29:16;13.90;94.80
18712;DHT22;9485;49.386;8.674;2022-09-20T00:34:39;13.90;94.70
18712;DHT22;9485;49.386;8.674;2022-09-20T00:40:19;13.90;94.60
18712;DHT22;9485;49.386;8.674;2022-09-20T00:45:42;13.80;94.60
18712;DHT22;9485;49.386;8.674;2022-09-20T00:51:09;13.80;94.70
18712;DHT22;9485;49.386;8.674;2022-09-20T00:56:35;13.80;94.70
18712;DHT22;9485;49.386;8.674;2022-09-20T01:02:01;13.80;94.80
18712;DHT22;9485;49.386;8.674;2022-09-20T01:07:26;13.90;94.70
18712;DHT22;9485;49.386;8.674;2022-09-20T01:12:49;13.90;94.50
18712;DHT22;9485;49.386;8.674;2022-09-20T01:18:11;13.80;94.40
18712;DHT22;9485;49.386;8.674;2022-09-20T01:23:47;13.70;94.30
18712;DHT22;9485;49.386;8.674;2022-09-20T01:29:27;13.70;94.30
18712;DHT22;9485;49.386;8.674;2022-09-20T01:34:58;13.60;94.70
18712;DHT22;9485;49.386;8.674;2022-09-20T01:40:25;13.60;94.80
18712;DHT22;9485;49.386;8.674;2022-09-20T01:45:53;13.60;94.50
18712;DHT22;9485;49.386;8.674;2022-09-20T01:51:47;13.60;94.50
18712;DHT22;9485;49.386;8.674;2022-09-20T01:57:55;13.60;94.50
18712;DHT22;9485;49.386;8.674;2022-09-20T02:04:14;13.60;94.50
18712;DHT22;9485;49.386;8.674;2022-09-20T02:10:29;13.60;94.40
18712;DHT22;9485;49.386;8.674;2022-09-20T02:16:20;13.60;94.40
18712;DHT22;9485;49.386;8.674;2022-09-20T02:22:08;13.60;94.40
18712;DHT22;9485;49.386;8.674;2022-09-20T02:27:44;13.60;94.80
18712;DHT22;9485;49.386;8.674;2022-09-20T02:33:29;13.60;94.50
18712;DHT22;9485;49.386;8.674;2022-09-20T02:39:10;13.50;94.50
18712;DHT22;9485;49.386;8.674;2022-09-20T02:44:49;13.50;94.50
18712;DHT22;9485;49.386;8.674;2022-09-20T02:50:24;13.50;94.50
18712;DHT22;9485;49.386;8.674;2022-09-20T02:56:04;13.50;94.50
18712;DHT22;9485;49.386;8.674;2022-09-20T03:01:37;13.50;94.60
18712;DHT22;9485;49.386;8.674;2022-09-20T03:07:11;13.50;94.60
18712;DHT22;9485;49.386;8.674;2022-09-20T03:12:51;13.50;94.50
18712;DHT22;9485;49.386;8.674;2022-09-20T03:18:33;13.50;94.50
18712;DHT22;9485;49.386;8.674;2022-09-20T03:24:10;13.40;94.40
18712;DHT22;9485;49.386;8.674;2022-09-20T03:29:52;13.40;94.30
18712;DHT22;9485;49.386;8.674;2022-09-20T03:35:38;13.40;94.30
18712;DHT22;9485;49.386;8.674;2022-09-20T03:41:25;13.30;94.30
18712;DHT22;9485;49.386;8.674;2022-09-20T03:47:15;13.30;94.10
18712;DHT22;9485;49.386;8.674;2022-09-20T03:53:00;13.20;94.10
18712;DHT22;9485;49.386;8.674;2022-09-20T03:58:49;13.20;93.90
18712;DHT22;9485;49.386;8.674;2022-09-20T04:04:32;13.10;93.90
18712;DHT22;9485;49.386;8.674;2022-09-20T04:16:00;12.90;94.00
18712;DHT22;9485;49.386;8.674;2022-09-20T04:21:34;12.80;94.00
18712;DHT22;9485;49.386;8.674;2022-09-20T04:27:02;12.80;94.10
18712;DHT22;9485;49.386;8.674;2022-09-20T04:32:34;12.70;94.10
18712;DHT22;9485;49.386;8.674;2022-09-20T04:38:02;12.70;94.00
18712;DHT22;9485;49.386;8.674;2022-09-20T04:44:02;12.60;93.90
18712;DHT22;9485;49.386;8.674;2022-09-20T04:50:22;12.50;93.90
18712;DHT22;9485;49.386;8.674;2022-09-20T04:56:02;12.40;93.60
18712;DHT22;9485;49.386;8.674;2022-09-20T05:02:13;12.40;93.80
18712;DHT22;9485;49.386;8.674;2022-09-20T05:08:27;12.30;93.40
18712;DHT22;9485;49.386;8.674;2022-09-20T05:14:42;12.30;93.60
18712;DHT22;9485;49.386;8.674;2022-09-20T05:20:43;12.20;94.10
18712;DHT22;9485;49.386;8.674;2022-09-20T05:26:15;12.20;94.10
18712;DHT22;9485;49.386;8.674;2022-09-20T05:31:57;12.30;94.40
18712;DHT22;9485;49.386;8.674;2022-09-20T05:37:34;12.30;94.50
18712;DHT22;9485;49.386;8.674;2022-09-20T05:43:07;12.30;94.70
18712;DHT22;9485;49.386;8.674;2022-09-20T05:48:37;12.40;94.80
18712;DHT22;9485;49.386;8.674;2022-09-20T05:54:23;12.50;94.70
18712;DHT22;9485;49.386;8.674;2022-09-20T06:00:00;12.50;94.50
18712;DHT22;9485;49.386;8.674;2022-09-20T06:05:44;12.50;94.70
18712;DHT22;9485;49.386;8.674;2022-09-20T06:11:26;12.60;94.70
18712;DHT22;9485;49.386;8.674;2022-09-20T06:17:15;12.60;94.70
18712;DHT22;9485;49.386;8.674;2022-09-20T06:22:47;12.70;94.80
18712;DHT22;9485;49.386;8.674;2022-09-20T06:28:14;12.70;94.80
18712;DHT22;9485;49.386;8.674;2022-09-20T06:33:43;12.70;94.90
18712;DHT22;9485;49.386;8.674;2022-09-20T06:39:17;12.90;95.20
18712;DHT22;9485;49.386;8.674;2022-09-20T06:45:04;13.00;95.60
18712;DHT22;9485;49.386;8.674;2022-09-20T06:50:24;13.20;95.80
18712;DHT22;9485;49.386;8.674;2022-09-20T06:55:47;13.50;95.90
18712;DHT22;9485;49.386;8.674;2022-09-20T07:01:09;13.70;95.80
18712;DHT22;9485;49.386;8.674;2022-09-20T07:06:32;13.80;95.70
18712;DHT22;9485;49.386;8.674;2022-09-20T07:11:55;14.00;95.60
18712;DHT22;9485;49.386;8.674;2022-09-20T07:17:17;14.10;95.70
18712;DHT22;9485;49.386;8.674;2022-09-20T07:22:37;14.30;95.90
18712;DHT22;9485;49.386;8.674;2022-09-20T07:27:59;14.60;95.80
18712;DHT22;9485;49.386;8.674;2022-09-20T07:33:20;14.80;96.10
18712;DHT22;9485;49.386;8.674;2022-09-20T07:38:47;15.20;96.30
18712;DHT22;9485;49.386;8.674;2022-09-20T07:44:10;15.50;95.70
18712;DHT22;9485;49.386;8.674;2022-09-20T07:49:43;15.70;95.30
18712;DHT22;9485;49.386;8.674;2022-09-20T07:55:04;16.00;95.10
18712;DHT22;9485;49.386;8.674;2022-09-20T08:00:27;16.10;94.80
18712;DHT22;9485;49.386;8.674;2022-09-20T08:05:48;16.20;94.50
18712;DHT22;9485;49.386;8.674;2022-09-20T08:11:10;16.40;94.40
18712;DHT22;9485;49.386;8.674;2022-09-20T08:16:39;16.40;95.00
18712;DHT22;9485;49.386;8.674;2022-09-20T08:22:01;17.00;96.70
18712;DHT22;9485;49.386;8.674;2022-09-20T08:27:22;18.00;97.80
18712;DHT22;9485;49.386;8.674;2022-09-20T08:32:44;19.10;97.80
18712;DHT22;9485;49.386;8.674;2022-09-20T08:38:05;20.10;97.00
18712;DHT22;9485;49.386;8.674;2022-09-20T08:43:29;21.20;95.90
18712;DHT22;9485;49.386;8.674;2022-09-20T08:48:57;21.80;93.70
18712;DHT22;9485;49.386;8.674;2022-09-20T08:54:17;22.40;92.00
18712;DHT22;9485;49.386;8.674;2022-09-20T08:59:38;22.70;91.80
18712;DHT22;9485;49.386;8.674;2022-09-20T09:05:02;23.00;90.20
18712;DHT22;9485;49.386;8.674;2022-09-20T09:10:28;23.20;89.10
18712;DHT22;9485;49.386;8.674;2022-09-20T09:15:58;23.30;87.80
18712;DHT22;9485;49.386;8.674;2022-09-20T09:21:24;23.40;85.50
18712;DHT22;9485;49.386;8.674;2022-09-20T09:26:46;23.50;86.20
18712;DHT22;9485;49.386;8.674;2022-09-20T09:32:21;23.80;89.30
18712;DHT22;9485;49.386;8.674;2022-09-20T09:37:52;24.40;84.10
18712;DHT22;9485;49.386;8.674;2022-09-20T09:43:19;24.70;79.60
18712;DHT22;9485;49.386;8.674;2022-09-20T09:48:45;24.40;78.00
18712;DHT22;9485;49.386;8.674;2022-09-20T09:54:13;23.80;78.70
18712;DHT22;9485;49.386;8.674;2022-09-20T09:59:48;23.10;77.40
18712;DHT22;9485;49.386;8.674;2022-09-20T10:05:22;22.50;77.20
18712;DHT22;9485;49.386;8.674;2022-09-20T10:11:00;21.90;79.90
18712;DHT22;9485;49.386;8.674;2022-09-20T10:16:31;21.50;80.10
18712;DHT22;9485;49.386;8.674;2022-09-20T10:22:07;21.20;82.90
18712;DHT22;9485;49.386;8.674;2022-09-20T10:27:52;21.30;85.80
18712;DHT22;9485;49.386;8.674;2022-09-20T10:33:29;21.70;85.30
18712;DHT22;9485;49.386;8.674;2022-09-20T10:38:59;22.10;84.90
18712;DHT22;9485;49.386;8.674;2022-09-20T10:44:41;22.10;82.70
18712;DHT22;9485;49.386;8.674;2022-09-20T10:50:23;21.90;79.50
18712;DHT22;9485;49.386;8.674;2022-09-20T10:56:02;21.50;79.30
18712;DHT22;9485;49.386;8.674;2022-09-20T11:01:40;21.00;79.60
18712;DHT22;9485;49.386;8.674;2022-09-20T11:07:12;20.70;81.00
18712;DHT22;9485;49.386;8.674;2022-09-20T11:12:42;20.50;82.50
18712;DHT22;9485;49.386;8.674;2022-09-20T11:18:13;20.40;82.90
18712;DHT22;9485;49.386;8.674;2022-09-20T11:23:46;20.30;84.30
18712;DHT22;9485;49.386;8.674;2022-09-20T11:29:22;20.30;83.50
18712;DHT22;9485;49.386;8.674;2022-09-20T11:34:52;20.20;81.20
18712;DHT22;9485;49.386;8.674;2022-09-20T11:40:21;20.00;79.30
18712;DHT22;9485;49.386;8.674;2022-09-20T11:45:50;19.60;78.30
18712;DHT22;9485;49.386;8.674;2022-09-20T11:57:38;18.80;78.50
18712;DHT22;9485;49.386;8.674;2022-09-20T12:03:00;18.40;82.40
18712;DHT22;9485;49.386;8.674;2022-09-20T12:08:28;18.30;84.30
18712;DHT22;9485;49.386;8.674;2022-09-20T12:13:56;18.30;84.80
18712;DHT22;9485;49.386;8.674;2022-09-20T12:19:36;18.50;85.40
18712;DHT22;9485;49.386;8.674;2022-09-20T12:25:37;18.70;84.10
18712;DHT22;9485;49.386;8.674;2022-09-20T12:37:16;19.00;80.40
18712;DHT22;9485;49.386;8.674;2022-09-20T12:42:44;19.20;81.80
18712;DHT22;9485;49.386;8.674;2022-09-20T12:48:17;19.40;83.70
18712;DHT22;9485;49.386;8.674;2022-09-20T12:53:38;19.80;82.60
18712;DHT22;9485;49.386;8.674;2022-09-20T12:59:01;20.40;84.70
18712;DHT22;9485;49.386;8.674;2022-09-20T13:04:53;21.20;85.90
18712;DHT22;9485;49.386;8.674;2022-09-20T13:10:33;22.10;75.00
18712;DHT22;9485;49.386;8.674;2022-09-20T13:15:57;22.80;74.00
18712;DHT22;9485;49.386;8.674;2022-09-20T13:21:24;23.30;76.70
18712;DHT22;9485;49.386;8.674;2022-09-20T13:26:47;23.70;77.00
18712;DHT22;9485;49.386;8.674;2022-09-20T13:32:17;24.00;72.30
18712;DHT22;9485;49.386;8.674;2022-09-20T13:37:49;24.40;71.90
18712;DHT22;9485;49.386;8.674;2022-09-20T13:43:24;24.60;72.90
18712;DHT22;9485;49.386;8.674;2022-09-20T13:48:52;24.90;69.90
18712;DHT22;9485;49.386;8.674;2022-09-20T13:54:26;25.00;68.50
18712;DHT22;9485;49.386;8.674;2022-09-20T13:59:49;25.10;66.80
18712;DHT22;9485;49.386;8.674;2022-09-20T14:05:17;25.20;67.50
18712;DHT22;9485;49.386;8.674;2022-09-20T14:10:39;25.30;64.40
18712;DHT22;9485;49.386;8.674;2022-09-20T14:16:02;25.20;65.50
18712;DHT22;9485;49.386;8.674;2022-09-20T14:21:26;24.90;61.60
18712;DHT22;9485;49.386;8.674;2022-09-20T14:27:01;24.40;62.70
18712;DHT22;9485;49.386;8.674;2022-09-20T14:32:35;23.90;62.30
18712;DHT22;9485;49.386;8.674;2022-09-20T14:38:01;23.30;58.90
18712;DHT22;9485;49.386;8.674;2022-09-20T14:43:28;22.70;62.90
18712;DHT22;9485;49.386;8.674;2022-09-20T14:48:52;22.20;64.50
18712;DHT22;9485;49.386;8.674;2022-09-20T14:54:26;21.70;64.20
18712;DHT22;9485;49.386;8.674;2022-09-20T14:59:53;21.30;64.30
18712;DHT22;9485;49.386;8.674;2022-09-20T15:05:22;21.00;67.30
18712;DHT22;9485;49.386;8.674;2022-09-20T15:10:46;20.80;68.20
18712;DHT22;9485;49.386;8.674;2022-09-20T15:16:07;20.60;67.70
18712;DHT22;9485;49.386;8.674;2022-09-20T15:21:32;20.40;67.50
18712;DHT22;9485;49.386;8.674;2022-09-20T15:26:54;20.20;68.60
18712;DHT22;9485;49.386;8.674;2022-09-20T15:32:15;20.00;68.40
18712;DHT22;9485;49.386;8.674;2022-09-20T15:37:35;19.90;70.40
18712;DHT22;9485;49.386;8.674;2022-09-20T15:42:57;19.70;70.50
18712;DHT22;9485;49.386;8.674;2022-09-20T15:48:21;19.60;70.30
18712;DHT22;9485;49.386;8.674;2022-09-20T15:53:45;19.50;68.80
18712;DHT22;9485;49.386;8.674;2022-09-20T15:59:10;19.40;70.30
18712;DHT22;9485;49.386;8.674;2022-09-20T16:04:33;19.20;70.60
18712;DHT22;9485;49.386;8.674;2022-09-20T16:09:55;19.10;71.40
18712;DHT22;9485;49.386;8.674;2022-09-20T16:15:17;19.00;72.40
18712;DHT22;9485;49.386;8.674;2022-09-20T16:20:38;18.80;72.60
18712;DHT22;9485;49.386;8.674;2022-09-20T16:25:59;18.70;72.90
18712;DHT22;9485;49.386;8.674;2022-09-20T16:31:33;18.60;72.80
18712;DHT22;9485;49.386;8.674;2022-09-20T16:36:59;18.50;71.90
18712;DHT22;9485;49.386;8.674;2022-09-20T16:42:20;18.40;74.20
18712;DHT22;9485;49.386;8.674;2022-09-20T16:47:43;18.40;74.40
18712;DHT22;9485;49.386;8.674;2022-09-20T16:53:04;18.30;74.10
18712;DHT22;9485;49.386;8.674;2022-09-20T16:58:26;18.30;74.60
18712;DHT22;9485;49.386;8.674;2022-09-20T17:03:49;18.20;75.00
18712;DHT22;9485;49.386;8.674;2022-09-20T17:09:11;18.10;75.10
18712;DHT22;9485;49.386;8.674;2022-09-20T17:14:33;18.10;75.50
18712;DHT22;9485;49.386;8.674;2022-09-20T17:19:56;17.90;75.70
18712;DHT22;9485;49.386;8.674;2022-09-20T17:25:17;17.90;76.10
18712;DHT22;9485;49.386;8.674;2022-09-20T17:30:37;17.70;77.00
18712;DHT22;9485;49.386;8.674;2022-09-20T17:36:00;17.60;77.60
18712;DHT22;9485;49.386;8.674;2022-09-20T17:41:22;17.40;77.20
18712;DHT22;9485;49.386;8.674;2022-09-20T17:46:44;17.30;77.40
18712;DHT22;9485;49.386;8.674;2022-09-20T17:52:08;17.10;77.60
18712;DHT22;9485;49.386;8.674;2022-09-20T17:57:29;16.90;78.10
18712;DHT22;9485;49.386;8.674;2022-09-20T18:02:50;16.80;78.70
18712;DHT22;9485;49.386;8.674;2022-09-20T18:08:11;16.60;79.10
18712;DHT22;9485;49.386;8.674;2022-09-20T18:13:32;16.50;79.50
18712;DHT22;9485;49.386;8.674;2022-09-20T18:18:53;16.30;80.10
18712;DHT22;9485;49.386;8.674;2022-09-20T18:24:15;16.10;80.20
18712;DHT22;9485;49.386;8.674;2022-09-20T18:29:37;16.00;80.40
18712;DHT22;9485;49.386;8.674;2022-09-20T18:34:57;15.80;80.80
18712;DHT22;9485;49.386;8.674;2022-09-20T18:40:20;15.70;81.30
18712;DHT22;9485;49.386;8.674;2022-09-20T18:45:49;15.50;81.50
18712;DHT22;9485;49.386;8.674;2022-09-20T18:51:12;15.40;81.50
18712;DHT22;9485;49.386;8.674;2022-09-20T18:56:36;15.30;82.10
18712;DHT22;9485;49.386;8.674;2022-09-20T19:02:07;15.20;82.10
18712;DHT22;9485;49.386;8.674;2022-09-20T19:07:48;15.10;81.90
18712;DHT22;9485;49.386;8.674;2022-09-20T19:13:28;15.00;82.60
18712;DHT22;9485;49.386;8.674;2022-09-20T19:25:16;14.80;81.90
18712;DHT22;9485;49.386;8.674;2022-09-20T19:30:41;14.70;82.50
18712;DHT22;9485;49.386;8.674;2022-09-20T19:36:06;14.50;82.80
18712;DHT22;9485;49.386;8.674;2022-09-20T19:41:37;14.40;83.50
18712;DHT22;9485;49.386;8.674;2022-09-20T19:47:22;14.20;83.80
18712;DHT22;9485;49.386;8.674;2022-09-20T19:52:49;14.20;84.00
18712;DHT22;9485;49.386;8.674;2022-09-20T19:58:11;14.10;84.30
18712;DHT22;9485;49.386;8.674;2022-09-20T20:03:34;14.00;84.60
18712;DHT22;9485;49.386;8.674;2022-09-20T20:09:00;13.90;85.00
18712;DHT22;9485;49.386;8.674;2022-09-20T20:14:34;13.90;85.40
18712;DHT22;9485;49.386;8.674;2022-09-20T20:20:13;13.80;85.70
18712;DHT22;9485;49.386;8.674;2022-09-20T20:25:47;13.70;85.20
18712;DHT22;9485;49.386;8.674;2022-09-20T20:31:13;13.60;85.00
18712;DHT22;9485;49.386;8.674;2022-09-20T20:36:35;13.50;85.80
18712;DHT22;9485;49.386;8.674;2022-09-20T20:41:56;13.50;86.40
18712;DHT22;9485;49.386;8.674;2022-09-20T20:47:19;13.40;86.90
18712;DHT22;9485;49.386;8.674;2022-09-20T20:52:42;13.40;87.60
18712;DHT22;9485;49.386;8.674;2022-09-20T20:58:03;13.40;87.80
18712;DHT22;9485;49.386;8.674;2022-09-20T21:03:25;13.40;88.00
18712;DHT22;9485;49.386;8.674;2022-09-20T21:08:47;13.40;87.80
18712;DHT22;9485;49.386;8.674;2022-09-20T21:14:08;13.40;88.00
18712;DHT22;9485;49.386;8.674;2022-09-20T21:19:30;13.40;88.50
18712;DHT22;9485;49.386;8.674;2022-09-20T21:24:52;13.40;88.60
18712;DHT22;9485;49.386;8.674;2022-09-20T21:30:13;13.40;88.50
18712;DHT22;9485;49.386;8.674;2022-09-20T21:35:34;13.40;88.90
18712;DHT22;9485;49.386;8.674;2022-09-20T21:41:04;13.40;89.20
18712;DHT22;9485;49.386;8.674;2022-09-20T21:46:27;13.40;89.10
18712;DHT22;9485;49.386;8.674;2022-09-20T21:51:48;13.40;89.50
18712;DHT22;9485;49.386;8.674;2022-09-20T21:57:13;13.30;89.60
18712;DHT22;9485;49.386;8.674;2022-09-20T22:02:33;13.30;89.60
18712;DHT22;9485;49.386;8.674;2022-09-20T22:07:54;15.00;90.40
18712;DHT22;9485;49.386;8.674;2022-09-20T22:13:16;13.30;89.80
18712;DHT22;9485;49.386;8.674;2022-09-20T22:18:38;13.30;89.70
18712;DHT22;9485;49.386;8.674;2022-09-20T22:24:02;13.20;89.30
18712;DHT22;9485;49.386;8.674;2022-09-20T22:29:25;13.20;90.10
18712;DHT22;9485;49.386;8.674;2022-09-20T22:34:49;13.20;90.10
18712;DHT22;9485;49.386;8.674;2022-09-20T22:40:10;13.20;90.40
18712;DHT22;9485;49.386;8.674;2022-09-20T22:45:31;13.20;90.40
18712;DHT22;9485;49.386;8.674;2022-09-20T22:50:57;13.20;90.30
18712;DHT22;9485;49.386;8.674;2022-09-20T22:56:20;13.20;90.30
18712;DHT22;9485;49.386;8.674;2022-09-20T23:01:46;13.20;90.30
18712;DHT22;9485;49.386;8.674;2022-09-20T23:07:07;13.20;90.20
18712;DHT22;9485;49.386;8.674;2022-09-20T23:12:28;13.10;90.20
18712;DHT22;9485;49.386;8.674;2022-09-20T23:17:50;13.10;90.50
18712;DHT22;9485;49.386;8.674;2022-09-20T23:23:13;13.00;90.10
18712;DHT22;9485;49.386;8.674;2022-09-20T23:28:44;12.90;89.90
18712;DHT22;9485;49.386;8.674;2022-09-20T23:34:08;12.80;89.60
18712;DHT22;9485;49.386;8.674;2022-09-20T23:39:31;12.70;89.70
18712;DHT22;9485;49.386;8.674;2022-09-20T23:44:55;12.60;90.10
18712;DHT22;9485;49.386;8.674;2022-09-20T23:50:17;12.50;90.30
18712;DHT22;9485;49.386;8.674;2022-09-20T23:55:38;12.50;90.10
